createdAt,value
2022-11-07T00:00:16.857Z,100558.13
2022-11-07T00:02:46.584Z,100560.06
2022-11-07T00:05:16.671Z,100557.47
2022-11-07T00:07:46.955Z,100559.22
2022-11-07T00:10:16.641Z,100560.34
2022-11-07T00:12:46.541Z,100563.69
2022-11-07T00:15:16.335Z,100557.97
2022-11-07T00:17:46.160Z,100552.97
2022-11-07T00:20:16.149Z,100539.81
2022-11-07T00:22:46.054Z,100545.19
2022-11-07T00:25:16.262Z,100547.19
2022-11-07T00:27:46.094Z,100543.91
2022-11-07T00:30:19.176Z,100536.16
2022-11-07T00:32:49.136Z,100535.94
2022-11-07T00:35:18.898Z,100545.38
2022-11-07T00:37:46.024Z,100545.69
2022-11-07T00:40:16.110Z,100543.47
2022-11-07T00:42:46.122Z,100543.47
2022-11-07T00:45:15.805Z,100534.16
2022-11-07T00:47:45.548Z,100534.72
2022-11-07T00:50:15.369Z,100534.72
2022-11-07T00:52:45.015Z,100514.13
2022-11-07T00:55:15.099Z,100514.72
2022-11-07T00:57:44.778Z,100514.66
2022-11-07T01:00:15.258Z,100514.22
2022-11-07T01:03:05.222Z,100511.00
2022-11-07T01:05:35.267Z,100527.53
2022-11-07T01:08:06.718Z,100515.69
2022-11-07T01:10:41.873Z,100516.78
2022-11-07T01:13:12.070Z,100523.16
2022-11-07T01:15:42.899Z,100526.94
2022-11-07T01:18:13.338Z,100526.41
2022-11-07T01:20:43.766Z,100534.88
2022-11-07T01:23:14.237Z,100520.53
2022-11-07T01:25:44.729Z,100529.97
2022-11-07T01:28:15.741Z,100531.03
2022-11-07T01:30:46.390Z,100521.50
2022-11-07T01:33:16.930Z,100530.66
2022-11-07T01:35:47.162Z,100515.59
2022-11-07T01:38:17.139Z,100516.81
2022-11-07T01:41:05.667Z,100519.31
2022-11-07T01:44:06.921Z,100514.91
2022-11-07T01:46:47.731Z,100513.84
2022-11-07T01:49:29.831Z,100516.63
2022-11-07T01:52:12.350Z,100523.25
2022-11-07T01:55:16.394Z,100525.47
2022-11-07T01:58:03.213Z,100522.13
2022-11-07T02:00:35.969Z,100521.47
2022-11-07T02:03:20.212Z,100523.94
2022-11-07T02:06:04.977Z,100520.38
2022-11-07T02:08:40.283Z,100530.56
2022-11-07T02:11:13.784Z,100518.13
2022-11-07T02:13:42.585Z,100517.53
2022-11-07T02:16:12.906Z,100516.13
2022-11-07T02:18:46.491Z,100524.09
2022-11-07T02:21:59.025Z,100515.03
2022-11-07T02:24:40.009Z,100505.63
2022-11-07T02:27:19.064Z,100506.75
2022-11-07T02:30:02.811Z,100507.28
2022-11-07T02:32:33.111Z,100512.03
2022-11-07T02:35:48.087Z,100506.59
2022-11-07T02:38:33.678Z,100515.28
2022-11-07T02:41:29.469Z,100508.50
2022-11-07T02:44:12.415Z,100504.38
2022-11-07T02:46:42.752Z,100515.72
2022-11-07T02:49:12.961Z,100524.78
2022-11-07T02:51:43.026Z,100508.50
2022-11-07T02:54:13.006Z,100501.59
2022-11-07T02:56:42.685Z,100503.97
2022-11-07T02:59:12.397Z,100506.97
2022-11-07T03:01:42.278Z,100511.47
2022-11-07T03:04:12.436Z,100517.63
2022-11-07T03:06:42.267Z,100523.34
2022-11-07T03:09:11.905Z,100522.78
2022-11-07T03:11:41.565Z,100524.34
2022-11-07T03:14:11.574Z,100518.75
2022-11-07T03:16:41.318Z,100523.66
2022-11-07T03:19:11.212Z,100525.53
2022-11-07T03:21:40.986Z,100522.97
2022-11-07T03:24:10.830Z,100528.41
2022-11-07T03:26:40.753Z,100533.44
2022-11-07T03:29:11.484Z,100535.31
2022-11-07T03:31:41.578Z,100539.53
2022-11-07T03:34:11.714Z,100546.66
2022-11-07T03:36:41.822Z,100547.22
2022-11-07T03:39:11.631Z,100559.59
2022-11-07T03:41:41.436Z,100562.38
2022-11-07T03:44:11.222Z,100560.31
2022-11-07T03:46:41.040Z,100565.53
2022-11-07T03:49:13.351Z,100571.19
2022-11-07T03:51:40.499Z,100562.91
2022-11-07T03:54:10.635Z,100566.19
2022-11-07T03:56:40.892Z,100572.50
2022-11-07T03:59:10.872Z,100569.25
2022-11-07T04:01:40.848Z,100568.03
2022-11-07T04:04:10.829Z,100571.31
2022-11-07T04:06:40.715Z,100574.91
2022-11-07T04:09:10.696Z,100576.00
2022-11-07T04:12:01.725Z,100578.59
2022-11-07T04:14:47.691Z,100576.94
2022-11-07T04:17:20.984Z,100574.41
2022-11-07T04:19:55.776Z,100574.53
2022-11-07T04:22:27.183Z,100569.81
2022-11-07T04:24:59.911Z,100574.81
2022-11-07T04:27:46.959Z,100570.72
2022-11-07T04:30:19.424Z,100578.38
2022-11-07T04:32:59.015Z,100574.06
2022-11-07T04:35:33.489Z,100576.09
2022-11-07T04:38:03.651Z,100585.59
2022-11-07T04:40:33.782Z,100585.25
2022-11-07T04:43:09.296Z,100573.94
2022-11-07T04:45:41.254Z,100583.75
2022-11-07T04:48:12.931Z,100586.06
2022-11-07T04:50:44.798Z,100587.59
2022-11-07T04:53:18.943Z,100590.66
2022-11-07T04:55:49.211Z,100587.38
2022-11-07T04:58:19.241Z,100602.91
2022-11-07T05:00:49.450Z,100611.19
2022-11-07T05:03:19.736Z,100612.63
2022-11-07T05:05:50.103Z,100608.25
2022-11-07T05:08:20.296Z,100603.31
2022-11-07T05:10:50.313Z,100607.22
2022-11-07T05:13:20.270Z,100606.91
2022-11-07T05:15:51.063Z,100607.91
2022-11-07T05:18:21.346Z,100612.09
2022-11-07T05:20:51.459Z,100607.34
2022-11-07T05:23:22.207Z,100607.63
2022-11-07T05:25:54.875Z,100607.84
2022-11-07T05:28:38.702Z,100618.06
2022-11-07T05:31:17.048Z,100615.50
2022-11-07T05:33:46.290Z,100619.50
2022-11-07T05:36:24.936Z,100617.56
2022-11-07T05:38:53.957Z,100627.28
2022-11-07T05:41:24.046Z,100626.47
2022-11-07T05:43:53.870Z,100625.84
2022-11-07T05:46:23.914Z,100632.56
2022-11-07T05:48:59.588Z,100625.00
2022-11-07T05:51:30.882Z,100629.91
2022-11-07T05:54:00.894Z,100636.94
2022-11-07T05:56:30.712Z,100635.09
2022-11-07T05:59:00.568Z,100642.44
2022-11-07T06:01:30.781Z,100640.53
2022-11-07T06:04:00.865Z,100651.06
2022-11-07T06:06:31.855Z,100649.63
2022-11-07T06:09:01.902Z,100654.34
2022-11-07T06:16:55.604Z,100657.53
2022-11-07T06:19:24.351Z,100663.88
2022-11-07T06:21:54.116Z,100670.13
2022-11-07T06:24:23.888Z,100665.56
2022-11-07T06:26:54.182Z,100670.56
2022-11-07T06:29:23.997Z,100665.84
2022-11-07T06:31:54.212Z,100658.03
2022-11-07T06:34:23.727Z,100647.72
2022-11-07T06:37:02.471Z,100667.63
2022-11-07T06:39:33.025Z,100669.34
2022-11-07T06:42:03.067Z,100669.88
2022-11-07T06:44:32.725Z,100665.63
2022-11-07T06:47:03.585Z,100671.31
2022-11-07T06:49:33.015Z,100672.75
2022-11-07T06:52:02.409Z,100668.50
2022-11-07T06:54:32.462Z,100664.00
2022-11-07T06:57:02.198Z,100674.13
2022-11-07T06:59:34.625Z,100676.88
2022-11-07T07:02:02.079Z,100676.88
2022-11-07T07:04:32.046Z,100682.94
2022-11-07T07:07:01.771Z,100678.66
2022-11-07T07:09:31.669Z,100688.84
2022-11-07T07:12:01.659Z,100682.53
2022-11-07T07:14:31.422Z,100701.56
2022-11-07T07:17:01.144Z,100689.69
2022-11-07T07:19:31.085Z,100692.75
2022-11-07T07:22:00.883Z,100700.47
2022-11-07T07:24:30.558Z,100705.88
2022-11-07T07:27:00.268Z,100705.34
2022-11-07T07:29:30.268Z,100701.31
2022-11-07T07:31:59.820Z,100706.94
2022-11-07T07:34:29.594Z,100714.00
2022-11-07T07:36:59.282Z,100713.06
2022-11-07T07:39:29.062Z,100710.91
2022-11-07T07:42:01.797Z,100704.75
2022-11-07T07:44:31.742Z,100702.00
2022-11-07T07:47:04.929Z,100700.69
2022-11-07T07:49:38.968Z,100706.22
2022-11-07T07:52:08.929Z,100703.44
2022-11-07T07:54:38.926Z,100704.66
2022-11-07T07:57:09.013Z,100701.47
2022-11-07T07:59:38.984Z,100702.53
2022-11-07T08:02:12.548Z,100704.25
2022-11-07T08:04:43.181Z,100706.59
2022-11-07T08:07:13.195Z,100702.53
2022-11-07T08:09:43.179Z,100707.00
2022-11-07T08:12:17.440Z,100698.59
2022-11-07T08:14:47.427Z,100708.53
2022-11-07T08:17:17.423Z,100715.78
2022-11-07T08:19:47.419Z,100714.44
2022-11-07T08:22:17.553Z,100715.50
2022-11-07T08:24:50.264Z,100705.13
2022-11-07T08:27:20.268Z,100713.78
2022-11-07T08:29:50.239Z,100700.75
2022-11-07T08:32:20.236Z,100711.75
2022-11-07T08:34:50.498Z,100703.63
2022-11-07T08:37:20.699Z,100710.00
2022-11-07T08:39:50.851Z,100701.13
2022-11-07T08:42:23.918Z,100707.59
2022-11-07T08:44:53.881Z,100710.03
2022-11-07T08:47:23.963Z,100705.16
2022-11-07T08:49:54.196Z,100709.78
2022-11-07T08:52:24.154Z,100713.66
2022-11-07T08:54:54.184Z,100715.88
2022-11-07T08:57:24.167Z,100716.09
2022-11-07T08:59:54.155Z,100731.47
2022-11-07T09:03:17.745Z,100722.06
2022-11-07T09:05:14.421Z,100724.63
2022-11-07T09:07:44.379Z,100726.44
2022-11-07T09:10:14.619Z,100720.88
2022-11-07T09:12:50.107Z,100725.91
2022-11-07T09:15:21.368Z,100722.34
2022-11-07T09:17:51.503Z,100716.00
2022-11-07T09:20:21.699Z,100729.88
2022-11-07T09:22:58.742Z,100728.41
2022-11-07T09:25:29.158Z,100736.06
2022-11-07T09:28:03.436Z,100731.03
2022-11-07T09:30:33.674Z,100733.66
2022-11-07T09:33:03.752Z,100738.06
2022-11-07T09:35:33.849Z,100735.97
2022-11-07T09:38:03.855Z,100735.66
2022-11-07T09:40:56.193Z,100735.00
2022-11-07T09:43:53.282Z,100733.72
2022-11-07T09:47:05.677Z,100741.84
2022-11-07T09:49:55.937Z,100740.00
2022-11-07T09:53:27.646Z,100734.50
2022-11-07T09:56:05.457Z,100744.41
2022-11-07T09:58:52.223Z,100734.69
2022-11-07T10:01:22.999Z,100729.03
2022-11-07T10:04:23.143Z,100731.53
2022-11-07T10:07:07.767Z,100734.88
2022-11-07T10:10:13.132Z,100735.50
2022-11-07T10:13:47.927Z,100731.22
2022-11-07T10:17:17.358Z,100733.31
2022-11-07T10:20:23.509Z,100733.38
2022-11-07T10:23:50.192Z,100734.66
2022-11-07T10:26:27.282Z,100745.31
2022-11-07T10:29:15.621Z,100734.81
2022-11-07T10:32:26.821Z,100742.44
2022-11-07T10:35:34.215Z,100742.06
2022-11-07T10:38:25.657Z,100742.63
2022-11-07T10:40:58.744Z,100740.84
2022-11-07T10:43:43.296Z,100739.47
2022-11-07T10:46:43.803Z,100729.69
2022-11-07T10:49:32.866Z,100729.16
2022-11-07T10:52:20.361Z,100734.41
2022-11-07T10:54:50.418Z,100736.50
2022-11-07T10:57:23.874Z,100730.69
2022-11-07T10:59:57.883Z,100729.97
2022-11-07T11:02:53.229Z,100727.34
2022-11-07T11:05:31.886Z,100731.34
2022-11-07T11:08:27.621Z,100728.69
2022-11-07T11:10:58.212Z,100731.56
2022-11-07T11:13:34.765Z,100728.50
2022-11-07T11:16:14.543Z,100725.09
2022-11-07T11:18:59.605Z,100717.69
2022-11-07T11:21:44.242Z,100720.63
2022-11-07T11:24:40.293Z,100721.59
2022-11-07T11:27:25.925Z,100722.25
2022-11-07T11:30:14.757Z,100725.25
2022-11-07T11:33:21.466Z,100711.44
2022-11-07T11:36:16.436Z,100721.34
2022-11-07T11:38:55.942Z,100713.88
2022-11-07T11:41:53.133Z,100709.44
2022-11-07T11:44:45.993Z,100710.38
2022-11-07T11:47:34.672Z,100722.28
2022-11-07T11:50:18.045Z,100720.91
2022-11-07T11:52:48.404Z,100725.06
2022-11-07T11:55:28.169Z,100706.59
2022-11-07T11:58:29.792Z,100721.16
2022-11-07T12:01:42.956Z,100713.59
2022-11-07T12:05:14.616Z,100718.84
2022-11-07T12:08:20.873Z,100709.19
2022-11-07T12:11:27.078Z,100714.97
2022-11-07T12:14:28.009Z,100720.25
2022-11-07T12:17:34.960Z,100704.56
2022-11-07T12:20:29.056Z,100711.78
2022-11-07T12:23:43.412Z,100707.22
2022-11-07T12:26:34.929Z,100711.09
2022-11-07T12:30:21.503Z,100713.00
2022-11-07T12:33:51.659Z,100714.81
2022-11-07T12:37:15.855Z,100702.88
2022-11-07T12:40:25.587Z,100709.84
2022-11-07T12:43:43.169Z,100718.63
2022-11-07T12:47:11.283Z,100710.47
2022-11-07T12:50:30.883Z,100716.19
2022-11-07T12:53:28.557Z,100722.56
2022-11-07T12:56:27.358Z,100714.19
2022-11-07T12:59:01.115Z,100722.88
2022-11-07T13:01:56.235Z,100722.16
2022-11-07T13:05:13.398Z,100706.16
2022-11-07T13:08:07.807Z,100724.28
2022-11-07T13:11:23.413Z,100722.50
2022-11-07T13:14:27.110Z,100722.97
2022-11-07T13:17:24.923Z,100723.75
2022-11-07T13:20:20.555Z,100721.84
2022-11-07T13:22:56.519Z,100717.56
2022-11-07T13:25:34.906Z,100713.16
2022-11-07T13:28:56.990Z,100716.59
2022-11-07T13:31:40.493Z,100718.09
2022-11-07T13:34:20.199Z,100717.84
2022-11-07T13:37:02.490Z,100722.44
2022-11-07T13:39:34.472Z,100727.66
2022-11-07T13:42:07.204Z,100724.75
2022-11-07T13:44:39.177Z,100723.25
2022-11-07T13:47:28.046Z,100713.47
2022-11-07T13:50:21.430Z,100723.78
2022-11-07T13:53:17.553Z,100718.72
2022-11-07T13:56:15.077Z,100718.22
2022-11-07T13:58:47.030Z,100720.19
2022-11-07T14:01:17.455Z,100724.28
2022-11-07T14:03:47.597Z,100711.97
2022-11-07T14:06:18.343Z,100722.78
2022-11-07T14:08:49.030Z,100718.38
2022-11-07T14:11:23.705Z,100719.03
2022-11-07T14:13:55.540Z,100721.34
2022-11-07T14:16:31.084Z,100714.63
2022-11-07T14:19:15.078Z,100718.22
2022-11-07T14:21:47.455Z,100707.56
2022-11-07T14:24:34.218Z,100705.06
2022-11-07T14:27:16.113Z,100703.72
2022-11-07T14:30:00.133Z,100713.00
2022-11-07T14:32:32.127Z,100713.22
2022-11-07T14:35:09.022Z,100714.44
2022-11-07T14:37:39.039Z,100707.09
2022-11-07T14:40:11.237Z,100704.31
2022-11-07T14:42:45.679Z,100703.31
2022-11-07T14:45:46.860Z,100699.44
2022-11-07T14:48:20.156Z,100695.50
2022-11-07T14:50:50.873Z,100682.09
2022-11-07T14:53:33.933Z,100693.06
2022-11-07T14:56:17.004Z,100693.31
2022-11-07T14:58:47.724Z,100686.31
2022-11-07T15:01:34.478Z,100688.63
2022-11-07T15:04:31.617Z,100689.13
2022-11-07T15:07:31.906Z,100691.78
2022-11-07T15:10:34.377Z,100689.31
2022-11-07T15:13:25.085Z,100690.66
2022-11-07T15:16:14.314Z,100697.44
2022-11-07T15:18:49.738Z,100702.34
2022-11-07T15:21:50.105Z,100699.94
2022-11-07T15:24:47.507Z,100694.84
2022-11-07T15:27:33.659Z,100699.25
2022-11-07T15:30:24.961Z,100695.28
2022-11-07T15:32:58.009Z,100697.91
2022-11-07T15:35:45.036Z,100706.94
2022-11-07T15:38:24.687Z,100704.47
2022-11-07T15:40:55.655Z,100705.28
2022-11-07T15:43:25.793Z,100709.88
2022-11-07T15:45:57.580Z,100711.34
2022-11-07T15:48:39.811Z,100705.44
2022-11-07T15:51:11.630Z,100710.19
2022-11-07T15:53:41.693Z,100705.78
2022-11-07T15:56:20.604Z,100706.81
2022-11-07T15:58:55.142Z,100707.03
2022-11-07T16:01:25.249Z,100706.69
2022-11-07T16:03:55.647Z,100716.88
2022-11-07T16:06:32.011Z,100727.06
2022-11-07T16:09:04.273Z,100715.16
2022-11-07T16:11:34.330Z,100724.19
2022-11-07T16:14:34.462Z,100722.38
2022-11-07T16:16:55.215Z,100729.09
2022-11-07T16:19:30.985Z,100736.44
2022-11-07T16:22:00.961Z,100730.25
2022-11-07T16:24:30.975Z,100727.81
2022-11-07T16:27:01.153Z,100725.38
2022-11-07T16:29:32.134Z,100729.78
2022-11-07T16:32:02.203Z,100724.91
2022-11-07T16:34:32.149Z,100729.78
2022-11-07T16:37:02.118Z,100723.09
2022-11-07T16:39:32.144Z,100729.97
2022-11-07T16:42:02.260Z,100734.38
2022-11-07T16:44:32.251Z,100734.38
2022-11-07T16:47:03.035Z,100737.31
2022-11-07T16:49:33.988Z,100736.00
2022-11-07T16:52:04.974Z,100744.78
2022-11-07T16:54:35.032Z,100740.03
2022-11-07T16:57:05.119Z,100732.50
2022-11-07T16:59:35.155Z,100731.38
2022-11-07T17:02:22.341Z,100740.31
2022-11-07T17:04:54.787Z,100740.50
2022-11-07T17:07:24.939Z,100738.53
2022-11-07T17:09:54.972Z,100735.63
2022-11-07T17:12:24.894Z,100736.13
2022-11-07T17:14:55.611Z,100733.97
2022-11-07T17:17:25.960Z,100738.56
2022-11-07T17:19:55.656Z,100736.44
2022-11-07T17:22:25.954Z,100740.41
2022-11-07T17:24:55.450Z,100740.72
2022-11-07T17:27:28.496Z,100745.47
2022-11-07T17:29:58.610Z,100741.69
2022-11-07T17:32:28.653Z,100748.03
2022-11-07T17:35:25.467Z,100748.81
2022-11-07T17:37:48.787Z,100759.28
2022-11-07T17:40:29.583Z,100761.72
2022-11-07T17:43:02.978Z,100768.88
2022-11-07T17:45:30.475Z,100769.34
2022-11-07T17:47:58.813Z,100766.94
2022-11-07T17:50:28.768Z,100767.09
2022-11-07T17:52:58.579Z,100767.41
2022-11-07T17:55:28.441Z,100771.47
2022-11-07T17:57:58.388Z,100778.78
2022-11-07T18:00:28.278Z,100770.13
2022-11-07T18:02:58.185Z,100778.94
2022-11-07T18:05:33.458Z,100780.28
2022-11-07T18:08:03.705Z,100782.91
2022-11-07T18:10:33.649Z,100776.41
2022-11-07T18:13:03.320Z,100780.00
2022-11-07T18:15:33.190Z,100781.28
2022-11-07T18:18:14.848Z,100780.81
2022-11-07T18:20:43.931Z,100785.19
2022-11-07T18:23:13.586Z,100786.16
2022-11-07T18:25:41.364Z,100781.13
2022-11-07T18:28:11.239Z,100786.94
2022-11-07T18:30:41.043Z,100783.19
2022-11-07T18:33:10.805Z,100788.22
2022-11-07T18:35:41.561Z,100795.25
2022-11-07T18:38:11.573Z,100787.88
2022-11-07T18:40:41.426Z,100795.53
2022-11-07T18:43:12.064Z,100793.72
2022-11-07T18:45:43.736Z,100781.94
2022-11-07T18:48:12.226Z,100788.81
2022-11-07T18:50:42.175Z,100784.31
2022-11-07T18:53:12.080Z,100783.81
2022-11-07T18:55:42.149Z,100791.97
2022-11-07T18:58:12.174Z,100788.19
2022-11-07T19:00:44.601Z,100787.25
2022-11-07T19:03:14.927Z,100792.19
2022-11-07T19:05:45.317Z,100791.56
2022-11-07T19:08:15.730Z,100796.16
2022-11-07T19:10:45.762Z,100803.00
2022-11-07T19:13:15.421Z,100797.44
2022-11-07T19:15:45.164Z,100800.69
2022-11-07T19:18:15.550Z,100797.94
2022-11-07T19:20:45.408Z,100791.25
2022-11-07T19:23:15.644Z,100806.09
2022-11-07T19:25:45.972Z,100792.91
2022-11-07T19:28:16.773Z,100804.00
2022-11-07T19:30:45.961Z,100797.81
2022-11-07T19:33:18.507Z,100793.06
2022-11-07T19:35:47.549Z,100798.28
2022-11-07T19:38:17.357Z,100802.72
2022-11-07T19:40:49.550Z,100803.31
2022-11-07T19:43:20.128Z,100805.91
2022-11-07T19:45:50.189Z,100807.06
2022-11-07T19:48:20.359Z,100805.06
2022-11-07T19:50:50.361Z,100801.25
2022-11-07T19:53:21.619Z,100802.75
2022-11-07T19:55:51.715Z,100804.22
2022-11-07T19:58:21.504Z,100806.50
2022-11-07T20:00:51.522Z,100801.75
2022-11-07T20:03:21.757Z,100805.16
2022-11-07T20:05:55.103Z,100802.69
2022-11-07T20:08:27.401Z,100806.25
2022-11-07T20:10:57.410Z,100811.84
2022-11-07T20:13:27.122Z,100806.94
2022-11-07T20:15:58.864Z,100809.19
2022-11-07T20:18:28.033Z,100810.84
2022-11-07T20:21:12.913Z,100813.03
2022-11-07T20:23:46.264Z,100811.22
2022-11-07T20:26:25.071Z,100813.69
2022-11-07T20:28:55.172Z,100814.06
2022-11-07T20:31:34.923Z,100819.28
2022-11-07T20:34:11.642Z,100815.88
2022-11-07T20:36:42.697Z,100823.72
2022-11-07T20:39:14.090Z,100814.41
2022-11-07T20:41:44.186Z,100817.16
2022-11-07T20:44:16.187Z,100815.88
2022-11-07T20:46:46.456Z,100822.69
2022-11-07T20:49:21.294Z,100826.78
2022-11-07T20:51:52.635Z,100827.47
2022-11-07T20:54:22.787Z,100831.72
2022-11-07T20:56:52.625Z,100830.56
2022-11-07T20:59:22.590Z,100827.47
2022-11-07T21:01:52.876Z,100833.31
2022-11-07T21:04:22.059Z,100830.38
2022-11-07T21:06:51.827Z,100831.03
2022-11-07T21:09:23.503Z,100833.78
2022-11-07T21:11:51.453Z,100837.34
2022-11-07T21:14:21.166Z,100837.16
2022-11-07T21:16:50.912Z,100829.19
2022-11-07T21:19:18.579Z,100843.16
2022-11-07T21:21:49.277Z,100837.63
2022-11-07T21:24:18.673Z,100839.03
2022-11-07T21:26:48.391Z,100833.59
2022-11-07T21:29:18.485Z,100828.25
2022-11-07T21:31:48.345Z,100832.78
2022-11-07T21:34:18.159Z,100835.06
2022-11-07T21:36:47.920Z,100835.72
2022-11-07T21:39:20.673Z,100835.56
2022-11-07T21:41:50.734Z,100826.47
2022-11-07T21:44:17.704Z,100836.56
2022-11-07T21:46:47.591Z,100839.81
2022-11-07T21:49:17.663Z,100839.00
2022-11-07T21:51:51.458Z,100845.91
2022-11-07T21:54:19.920Z,100833.78
2022-11-07T21:56:49.493Z,100834.44
2022-11-07T21:59:19.656Z,100830.97
2022-11-07T22:01:50.087Z,100827.50
2022-11-07T22:04:20.116Z,100833.41
2022-11-07T22:06:51.640Z,100835.66
2022-11-07T22:09:22.496Z,100838.09
2022-11-07T22:11:51.938Z,100834.00
2022-11-07T22:14:23.305Z,100840.22
2022-11-07T22:16:56.210Z,100838.34
2022-11-07T22:19:26.846Z,100827.63
2022-11-07T22:21:56.071Z,100828.06
2022-11-07T22:24:27.338Z,100830.34
2022-11-07T22:26:57.319Z,100832.59
2022-11-07T22:29:26.964Z,100832.25
2022-11-07T22:31:57.245Z,100831.84
2022-11-07T22:34:27.249Z,100840.16
2022-11-07T22:36:57.227Z,100840.06
2022-11-07T22:39:26.775Z,100835.41
2022-11-07T22:41:56.497Z,100828.06
2022-11-07T22:44:26.300Z,100835.88
2022-11-07T22:46:56.482Z,100842.84
2022-11-07T22:49:26.303Z,100833.72
2022-11-07T22:51:56.029Z,100829.31
2022-11-07T22:54:25.785Z,100840.06
2022-11-07T22:56:55.636Z,100831.44
2022-11-07T22:59:25.430Z,100827.97
2022-11-07T23:01:55.220Z,100828.47
2022-11-07T23:04:29.984Z,100816.91
2022-11-07T23:07:01.684Z,100810.94
2022-11-07T23:09:31.631Z,100818.59
2022-11-07T23:12:01.218Z,100820.16
2022-11-07T23:14:28.417Z,100827.56
2022-11-07T23:16:57.249Z,100827.66
2022-11-07T23:19:27.497Z,100825.66
2022-11-07T23:21:57.547Z,100827.91
2022-11-07T23:24:27.160Z,100827.75
2022-11-07T23:26:57.670Z,100830.81
2022-11-07T23:29:27.336Z,100820.75
2022-11-07T23:31:57.117Z,100829.88
2022-11-07T23:34:26.996Z,100819.75
2022-11-07T23:36:56.704Z,100825.28
2022-11-07T23:39:26.629Z,100839.63
2022-11-07T23:41:56.546Z,100839.44
2022-11-07T23:44:26.309Z,100836.16
2022-11-07T23:47:15.017Z,100827.47
2022-11-07T23:50:03.499Z,100830.69
2022-11-07T23:52:33.314Z,100827.94
2022-11-07T23:55:21.495Z,100820.81
2022-11-07T23:58:10.409Z,100822.97
